sensor_id;sensor_type;location;lat;lon;timestamp;pressure;altitude;pressure_sealevel;temperature;humidity
68634;BME280;55625;47.072;22.192;2023-05-09T00:00:43;100326.00;;;8.39;84.01
68634;BME280;55625;47.072;22.192;2023-05-09T00:03:09;100332.78;;;8.46;84.17
68634;BME280;55625;47.072;22.192;2023-05-09T00:05:37;100327.69;;;8.33;83.93
68634;BME280;55625;47.072;22.192;2023-05-09T00:08:04;100331.72;;;8.32;84.59
68634;BME280;55625;47.072;22.192;2023-05-09T00:10:29;100326.13;;;8.25;85.25
68634;BME280;55625;47.072;22.192;2023-05-09T00:12:56;100324.94;;;8.23;85.21
68634;BME280;55625;47.072;22.192;2023-05-09T00:15:23;100325.75;;;8.23;85.78
68634;BME280;55625;47.072;22.192;2023-05-09T00:17:50;100327.41;;;8.21;85.51
68634;BME280;55625;47.072;22.192;2023-05-09T00:20:16;100330.28;;;8.17;85.75
68634;BME280;55625;47.072;22.192;2023-05-09T00:22:42;100325.41;;;8.18;85.63
68634;BME280;55625;47.072;22.192;2023-05-09T00:25:09;100328.25;;;8.18;85.31
68634;BME280;55625;47.072;22.192;2023-05-09T00:27:35;100323.72;;;8.24;85.25
68634;BME280;55625;47.072;22.192;2023-05-09T00:30:03;100322.50;;;8.25;84.85
68634;BME280;55625;47.072;22.192;2023-05-09T00:32:29;100326.13;;;8.25;84.34
68634;BME280;55625;47.072;22.192;2023-05-09T00:34:57;100326.47;;;8.31;84.53
68634;BME280;55625;47.072;22.192;2023-05-09T00:37:22;100322.47;;;8.28;85.20
68634;BME280;55625;47.072;22.192;2023-05-09T00:39:48;100319.66;;;8.25;85.39
68634;BME280;55625;47.072;22.192;2023-05-09T00:42:14;100326.19;;;8.22;85.48
68634;BME280;55625;47.072;22.192;2023-05-09T00:44:41;100323.81;;;8.17;85.63
68634;BME280;55625;47.072;22.192;2023-05-09T00:47:06;100319.06;;;8.10;86.80
68634;BME280;55625;47.072;22.192;2023-05-09T00:49:33;100321.50;;;8.08;86.22
68634;BME280;55625;47.072;22.192;2023-05-09T00:51:59;100327.16;;;8.08;86.13
68634;BME280;55625;47.072;22.192;2023-05-09T00:54:25;100330.31;;;8.14;85.80
68634;BME280;55625;47.072;22.192;2023-05-09T00:56:51;100326.75;;;8.09;86.35
68634;BME280;55625;47.072;22.192;2023-05-09T00:59:17;100325.94;;;8.09;86.42
68634;BME280;55625;47.072;22.192;2023-05-09T01:01:44;100324.75;;;8.06;86.45
68634;BME280;55625;47.072;22.192;2023-05-09T01:04:11;100321.50;;;8.08;86.33
68634;BME280;55625;47.072;22.192;2023-05-09T01:12:15;100333.28;;;8.03;87.26
68634;BME280;55625;47.072;22.192;2023-05-09T01:18:05;100335.56;;;8.15;85.03
68634;BME280;55625;47.072;22.192;2023-05-09T01:21:15;100342.44;;;8.14;85.13
68634;BME280;55625;47.072;22.192;2023-05-09T01:29:46;100343.09;;;7.91;86.56
68634;BME280;55625;47.072;22.192;2023-05-09T01:32:23;100347.94;;;7.91;85.84
68634;BME280;55625;47.072;22.192;2023-05-09T01:34:54;100337.06;;;7.89;85.65
68634;BME280;55625;47.072;22.192;2023-05-09T01:37:32;100329.69;;;7.99;84.68
68634;BME280;55625;47.072;22.192;2023-05-09T01:40:05;100336.56;;;7.98;85.94
68634;BME280;55625;47.072;22.192;2023-05-09T01:42:44;100332.53;;;7.95;86.10
68634;BME280;55625;47.072;22.192;2023-05-09T01:45:13;100330.50;;;7.99;85.18
68634;BME280;55625;47.072;22.192;2023-05-09T01:47:40;100327.31;;;7.94;85.02
68634;BME280;55625;47.072;22.192;2023-05-09T01:50:11;100328.94;;;7.91;85.92
68634;BME280;55625;47.072;22.192;2023-05-09T01:52:38;100329.84;;;7.85;85.18
68634;BME280;55625;47.072;22.192;2023-05-09T01:55:06;100333.88;;;7.84;85.60
68634;BME280;55625;47.072;22.192;2023-05-09T01:57:34;100337.47;;;7.88;85.37
68634;BME280;55625;47.072;22.192;2023-05-09T02:00:02;100344.44;;;7.79;87.39
68634;BME280;55625;47.072;22.192;2023-05-09T02:02:29;100339.59;;;7.80;86.53
68634;BME280;55625;47.072;22.192;2023-05-09T02:04:55;100338.78;;;7.79;85.41
68634;BME280;55625;47.072;22.192;2023-05-09T02:07:23;100342.84;;;7.78;85.46
68634;BME280;55625;47.072;22.192;2023-05-09T02:09:50;100335.97;;;7.79;85.63
68634;BME280;55625;47.072;22.192;2023-05-09T02:12:19;100339.53;;;7.84;85.50
68634;BME280;55625;47.072;22.192;2023-05-09T02:14:45;100340.47;;;7.73;86.17
68634;BME280;55625;47.072;22.192;2023-05-09T02:17:11;100344.13;;;7.70;85.80
68634;BME280;55625;47.072;22.192;2023-05-09T02:19:42;100341.34;;;7.67;86.86
68634;BME280;55625;47.072;22.192;2023-05-09T02:22:08;100336.50;;;7.64;86.57
68634;BME280;55625;47.072;22.192;2023-05-09T02:24:35;100342.16;;;7.64;86.92
68634;BME280;55625;47.072;22.192;2023-05-09T02:27:05;100340.53;;;7.66;86.85
68634;BME280;55625;47.072;22.192;2023-05-09T02:29:36;100330.47;;;7.65;86.71
68634;BME280;55625;47.072;22.192;2023-05-09T02:32:26;100328.75;;;7.75;86.94
68634;BME280;55625;47.072;22.192;2023-05-09T02:34:54;100326.00;;;7.68;87.76
68634;BME280;55625;47.072;22.192;2023-05-09T02:37:23;100327.56;;;7.72;87.82
68634;BME280;55625;47.072;22.192;2023-05-09T02:39:49;100328.81;;;7.68;88.40
68634;BME280;55625;47.072;22.192;2023-05-09T02:42:23;100336.88;;;7.69;89.02
68634;BME280;55625;47.072;22.192;2023-05-09T02:44:54;100330.03;;;7.67;90.83
68634;BME280;55625;47.072;22.192;2023-05-09T02:47:21;100333.59;;;7.74;88.91
68634;BME280;55625;47.072;22.192;2023-05-09T02:49:47;100328.38;;;7.73;88.91
68634;BME280;55625;47.072;22.192;2023-05-09T02:52:13;100332.38;;;7.75;89.04
68634;BME280;55625;47.072;22.192;2023-05-09T02:54:39;100332.38;;;7.75;88.47
68634;BME280;55625;47.072;22.192;2023-05-09T02:57:05;100331.91;;;7.81;88.32
68634;BME280;55625;47.072;22.192;2023-05-09T02:59:31;100338.78;;;7.79;87.75
68634;BME280;55625;47.072;22.192;2023-05-09T03:01:57;100338.78;;;7.79;87.44
68634;BME280;55625;47.072;22.192;2023-05-09T03:04:23;100337.91;;;7.86;86.66
68634;BME280;55625;47.072;22.192;2023-05-09T03:06:50;100340.31;;;7.88;86.95
68634;BME280;55625;47.072;22.192;2023-05-09T03:09:16;100332.63;;;7.88;85.69
68634;BME280;55625;47.072;22.192;2023-05-09T03:11:42;100330.50;;;7.96;86.51
68634;BME280;55625;47.072;22.192;2023-05-09T03:14:08;100335.25;;;8.06;85.45
68634;BME280;55625;47.072;22.192;2023-05-09T03:16:35;100336.50;;;8.05;85.15
68634;BME280;55625;47.072;22.192;2023-05-09T03:19:02;100351.00;;;8.07;85.82
68634;BME280;55625;47.072;22.192;2023-05-09T03:21:28;100348.84;;;8.18;84.53
68634;BME280;55625;47.072;22.192;2023-05-09T03:23:54;100346.06;;;8.15;86.06
68634;BME280;55625;47.072;22.192;2023-05-09T03:26:19;100348.09;;;8.14;84.55
68634;BME280;55625;47.072;22.192;2023-05-09T03:28:46;100347.66;;;8.16;84.85
68634;BME280;55625;47.072;22.192;2023-05-09T03:31:14;100351.25;;;8.20;84.08
68634;BME280;55625;47.072;22.192;2023-05-09T03:33:39;100347.31;;;8.10;85.11
68634;BME280;55625;47.072;22.192;2023-05-09T03:36:06;100350.16;;;8.10;85.37
68634;BME280;55625;47.072;22.192;2023-05-09T03:38:32;100361.13;;;8.04;86.01
68634;BME280;55625;47.072;22.192;2023-05-09T03:40:58;100354.66;;;8.04;85.83
68634;BME280;55625;47.072;22.192;2023-05-09T03:43:23;100362.72;;;8.05;85.61
68634;BME280;55625;47.072;22.192;2023-05-09T03:45:49;100358.25;;;8.08;85.70
68634;BME280;55625;47.072;22.192;2023-05-09T03:48:15;100359.47;;;8.07;85.26
68634;BME280;55625;47.072;22.192;2023-05-09T03:50:41;100357.78;;;8.13;84.65
68634;BME280;55625;47.072;22.192;2023-05-09T03:53:08;100376.63;;;8.27;83.84
68634;BME280;55625;47.072;22.192;2023-05-09T03:55:34;100379.09;;;8.21;84.41
68634;BME280;55625;47.072;22.192;2023-05-09T03:58:00;100378.28;;;8.21;84.78
68634;BME280;55625;47.072;22.192;2023-05-09T04:00:26;100378.25;;;8.24;84.23
68634;BME280;55625;47.072;22.192;2023-05-09T04:02:52;100380.25;;;8.27;82.67
68634;BME280;55625;47.072;22.192;2023-05-09T04:05:19;100382.31;;;8.23;83.19
68634;BME280;55625;47.072;22.192;2023-05-09T04:07:46;100377.91;;;8.19;83.54
68634;BME280;55625;47.072;22.192;2023-05-09T04:10:12;100381.59;;;8.16;84.18
68634;BME280;55625;47.072;22.192;2023-05-09T04:12:39;100380.69;;;8.22;83.06
68634;BME280;55625;47.072;22.192;2023-05-09T04:15:06;100382.28;;;8.27;83.04
68634;BME280;55625;47.072;22.192;2023-05-09T04:17:33;100382.69;;;8.25;83.68
68634;BME280;55625;47.072;22.192;2023-05-09T04:19:59;100386.59;;;8.38;82.55
68634;BME280;55625;47.072;22.192;2023-05-09T04:22:26;100383.16;;;8.54;81.40
68634;BME280;55625;47.072;22.192;2023-05-09T04:24:53;100386.31;;;8.63;81.81
68634;BME280;55625;47.072;22.192;2023-05-09T04:27:20;100383.78;;;8.69;81.58
68634;BME280;55625;47.072;22.192;2023-05-09T04:29:48;100384.75;;;8.55;81.38
68634;BME280;55625;47.072;22.192;2023-05-09T04:32:14;100378.69;;;8.57;82.18
68634;BME280;55625;47.072;22.192;2023-05-09T04:34:40;100389.44;;;8.69;80.45
68634;BME280;55625;47.072;22.192;2023-05-09T04:37:06;100392.75;;;8.94;79.37
68634;BME280;55625;47.072;22.192;2023-05-09T04:39:33;100388.09;;;9.08;79.82
68634;BME280;55625;47.072;22.192;2023-05-09T04:42:00;100399.97;;;9.26;78.38
68634;BME280;55625;47.072;22.192;2023-05-09T04:44:25;100389.38;;;9.30;79.41
68634;BME280;55625;47.072;22.192;2023-05-09T04:46:51;100378.66;;;9.41;79.21
68634;BME280;55625;47.072;22.192;2023-05-09T04:49:19;100392.69;;;9.52;77.51
68634;BME280;55625;47.072;22.192;2023-05-09T04:51:45;100390.97;;;9.31;77.54
68634;BME280;55625;47.072;22.192;2023-05-09T04:54:11;100384.34;;;9.41;77.69
68634;BME280;55625;47.072;22.192;2023-05-09T04:56:37;100391.31;;;9.60;77.75
68634;BME280;55625;47.072;22.192;2023-05-09T04:59:02;100388.16;;;9.78;77.70
68634;BME280;55625;47.072;22.192;2023-05-09T05:01:28;100393.94;;;9.94;78.26
68634;BME280;55625;47.072;22.192;2023-05-09T05:03:54;100385.56;;;10.10;75.60
68634;BME280;55625;47.072;22.192;2023-05-09T05:06:20;100380.63;;;10.14;73.22
68634;BME280;55625;47.072;22.192;2023-05-09T05:08:46;100385.78;;;10.19;74.86
68634;BME280;55625;47.072;22.192;2023-05-09T05:11:12;100374.59;;;10.32;73.42
68634;BME280;55625;47.072;22.192;2023-05-09T05:13:38;100393.59;;;10.55;72.11
68634;BME280;55625;47.072;22.192;2023-05-09T05:16:04;100391.84;;;10.61;71.45
68634;BME280;55625;47.072;22.192;2023-05-09T05:18:30;100387.47;;;10.76;72.22
68634;BME280;55625;47.072;22.192;2023-05-09T05:20:56;100390.19;;;11.00;70.83
68634;BME280;55625;47.072;22.192;2023-05-09T05:23:21;100401.50;;;11.03;70.37
68634;BME280;55625;47.072;22.192;2023-05-09T05:25:47;100406.75;;;11.21;72.44
68634;BME280;55625;47.072;22.192;2023-05-09T05:28:13;100398.53;;;11.43;71.25
68634;BME280;55625;47.072;22.192;2023-05-09T05:30:42;100390.09;;;11.72;68.73
68634;BME280;55625;47.072;22.192;2023-05-09T05:33:08;100396.75;;;11.98;67.84
68634;BME280;55625;47.072;22.192;2023-05-09T05:35:33;100399.72;;;11.78;68.34
68634;BME280;55625;47.072;22.192;2023-05-09T05:38:00;100395.66;;;11.59;69.92
68634;BME280;55625;47.072;22.192;2023-05-09T05:40:26;100403.06;;;11.40;70.03
68634;BME280;55625;47.072;22.192;2023-05-09T05:42:52;100391.91;;;11.30;68.79
68634;BME280;55625;47.072;22.192;2023-05-09T05:45:18;100401.00;;;11.41;68.29
68634;BME280;55625;47.072;22.192;2023-05-09T05:47:44;100397.56;;;11.66;68.28
68634;BME280;55625;47.072;22.192;2023-05-09T05:50:11;100398.06;;;11.77;68.58
68634;BME280;55625;47.072;22.192;2023-05-09T05:52:38;100391.97;;;11.95;66.33
68634;BME280;55625;47.072;22.192;2023-05-09T05:55:04;100395.75;;;12.04;67.83
68634;BME280;55625;47.072;22.192;2023-05-09T05:57:31;100399.84;;;12.03;66.92
68634;BME280;55625;47.072;22.192;2023-05-09T05:59:57;100399.41;;;11.89;66.65
68634;BME280;55625;47.072;22.192;2023-05-09T06:02:23;100404.50;;;11.81;67.92
68634;BME280;55625;47.072;22.192;2023-05-09T06:04:49;100404.75;;;11.70;65.97
68634;BME280;55625;47.072;22.192;2023-05-09T06:07:15;100404.66;;;12.06;67.80
68634;BME280;55625;47.072;22.192;2023-05-09T06:09:41;100408.66;;;12.38;63.69
68634;BME280;55625;47.072;22.192;2023-05-09T06:12:06;100401.59;;;12.71;63.59
68634;BME280;55625;47.072;22.192;2023-05-09T06:14:32;100394.00;;;12.94;64.30
68634;BME280;55625;47.072;22.192;2023-05-09T06:16:58;100410.66;;;13.08;63.04
68634;BME280;55625;47.072;22.192;2023-05-09T06:19:25;100404.50;;;12.97;63.35
68634;BME280;55625;47.072;22.192;2023-05-09T06:21:51;100406.22;;;13.07;60.91
68634;BME280;55625;47.072;22.192;2023-05-09T06:24:17;100402.41;;;13.26;60.39
68634;BME280;55625;47.072;22.192;2023-05-09T06:26:43;100409.00;;;13.36;60.19
68634;BME280;55625;47.072;22.192;2023-05-09T06:29:09;100412.38;;;12.93;60.48
68634;BME280;55625;47.072;22.192;2023-05-09T06:31:35;100415.22;;;12.93;60.57
68634;BME280;55625;47.072;22.192;2023-05-09T06:34:03;100408.78;;;13.30;60.58
68634;BME280;55625;47.072;22.192;2023-05-09T06:36:30;100408.44;;;13.54;59.48
68634;BME280;55625;47.072;22.192;2023-05-09T06:38:57;100405.00;;;13.59;61.77
68634;BME280;55625;47.072;22.192;2023-05-09T06:41:23;100405.22;;;13.39;61.72
68634;BME280;55625;47.072;22.192;2023-05-09T06:43:49;100401.72;;;13.22;61.16
68634;BME280;55625;47.072;22.192;2023-05-09T06:46:14;100403.88;;;13.18;60.99
68634;BME280;55625;47.072;22.192;2023-05-09T06:48:40;100400.56;;;13.32;61.40
68634;BME280;55625;47.072;22.192;2023-05-09T06:51:06;100405.31;;;12.97;62.11
68634;BME280;55625;47.072;22.192;2023-05-09T06:53:32;100402.78;;;12.99;62.50
68634;BME280;55625;47.072;22.192;2023-05-09T06:55:58;100415.28;;;13.18;62.54
68634;BME280;55625;47.072;22.192;2023-05-09T06:58:24;100407.19;;;13.29;62.49
68634;BME280;55625;47.072;22.192;2023-05-09T07:00:52;100407.75;;;13.50;63.79
68634;BME280;55625;47.072;22.192;2023-05-09T07:03:18;100417.75;;;13.67;63.13
68634;BME280;55625;47.072;22.192;2023-05-09T07:05:44;100410.69;;;13.72;61.61
68634;BME280;55625;47.072;22.192;2023-05-09T07:08:10;100410.91;;;13.77;61.33
68634;BME280;55625;47.072;22.192;2023-05-09T07:10:36;100407.81;;;13.84;61.77
68634;BME280;55625;47.072;22.192;2023-05-09T07:13:03;100409.09;;;13.83;60.10
68634;BME280;55625;47.072;22.192;2023-05-09T07:15:29;100397.88;;;13.76;61.64
68634;BME280;55625;47.072;22.192;2023-05-09T07:17:55;100403.25;;;13.74;62.47
68634;BME280;55625;47.072;22.192;2023-05-09T07:20:21;100405.66;;;13.76;60.72
68634;BME280;55625;47.072;22.192;2023-05-09T07:22:47;100398.59;;;13.80;61.17
68634;BME280;55625;47.072;22.192;2023-05-09T07:25:13;100405.06;;;13.93;62.33
68634;BME280;55625;47.072;22.192;2023-05-09T07:27:39;100405.94;;;14.03;62.13
68634;BME280;55625;47.072;22.192;2023-05-09T07:30:06;100403.31;;;14.09;62.04
68634;BME280;55625;47.072;22.192;2023-05-09T07:32:34;100409.81;;;14.09;61.95
68634;BME280;55625;47.072;22.192;2023-05-09T07:35:00;100401.59;;;14.11;62.18
68634;BME280;55625;47.072;22.192;2023-05-09T07:37:26;100403.72;;;14.20;64.87
68634;BME280;55625;47.072;22.192;2023-05-09T07:39:51;100403.72;;;14.20;63.24
68634;BME280;55625;47.072;22.192;2023-05-09T07:42:17;100403.72;;;14.20;63.07
68634;BME280;55625;47.072;22.192;2023-05-09T07:44:43;100411.16;;;14.17;61.24
68634;BME280;55625;47.072;22.192;2023-05-09T07:47:10;100414.34;;;14.19;63.21
68634;BME280;55625;47.072;22.192;2023-05-09T07:49:36;100408.50;;;14.23;63.90
68634;BME280;55625;47.072;22.192;2023-05-09T07:52:02;100410.78;;;14.28;62.42
68634;BME280;55625;47.072;22.192;2023-05-09T07:54:27;100411.81;;;14.21;62.08
68634;BME280;55625;47.072;22.192;2023-05-09T07:56:53;100408.63;;;14.19;61.09
68634;BME280;55625;47.072;22.192;2023-05-09T07:59:19;100411.50;;;14.19;61.43
68634;BME280;55625;47.072;22.192;2023-05-09T08:01:45;100411.69;;;14.25;64.48
68634;BME280;55625;47.072;22.192;2023-05-09T08:04:11;100409.84;;;14.31;63.22
68634;BME280;55625;47.072;22.192;2023-05-09T08:06:37;100411.31;;;14.48;63.30
68634;BME280;55625;47.072;22.192;2023-05-09T08:09:03;100408.84;;;14.59;62.35
68634;BME280;55625;47.072;22.192;2023-05-09T08:11:32;100412.28;;;14.54;62.65
68634;BME280;55625;47.072;22.192;2023-05-09T08:13:59;100402.06;;;14.44;62.56
68634;BME280;55625;47.072;22.192;2023-05-09T08:16:25;100414.16;;;14.48;63.29
68634;BME280;55625;47.072;22.192;2023-05-09T08:18:50;100414.28;;;14.45;62.23
68634;BME280;55625;47.072;22.192;2023-05-09T08:21:16;100413.81;;;14.46;60.10
68634;BME280;55625;47.072;22.192;2023-05-09T08:23:42;100414.16;;;14.36;60.11
68634;BME280;55625;47.072;22.192;2023-05-09T08:26:08;100420.47;;;14.30;60.81
68634;BME280;55625;47.072;22.192;2023-05-09T08:28:34;100422.72;;;14.36;61.25
68634;BME280;55625;47.072;22.192;2023-05-09T08:30:59;100415.41;;;14.47;61.98
68634;BME280;55625;47.072;22.192;2023-05-09T08:33:25;100419.09;;;14.70;60.84
68634;BME280;55625;47.072;22.192;2023-05-09T08:35:52;100403.50;;;14.93;61.38
68634;BME280;55625;47.072;22.192;2023-05-09T08:38:19;100419.13;;;15.01;58.75
68634;BME280;55625;47.072;22.192;2023-05-09T08:40:45;100417.59;;;14.87;59.09
68634;BME280;55625;47.072;22.192;2023-05-09T08:43:12;100420.50;;;14.96;59.27
68634;BME280;55625;47.072;22.192;2023-05-09T08:45:50;100417.94;;;14.89;62.01
68634;BME280;55625;47.072;22.192;2023-05-09T08:48:20;100416.47;;;15.06;59.87
68634;BME280;55625;47.072;22.192;2023-05-09T08:50:47;100412.81;;;15.37;58.37
68634;BME280;55625;47.072;22.192;2023-05-09T08:53:14;100413.63;;;15.46;56.98
68634;BME280;55625;47.072;22.192;2023-05-09T08:55:40;100410.31;;;15.57;58.37
68634;BME280;55625;47.072;22.192;2023-05-09T08:58:06;100415.50;;;15.71;58.77
68634;BME280;55625;47.072;22.192;2023-05-09T09:00:33;100415.53;;;15.80;56.08
68634;BME280;55625;47.072;22.192;2023-05-09T09:03:01;100407.56;;;15.75;54.71
68634;BME280;55625;47.072;22.192;2023-05-09T09:05:35;100400.25;;;15.74;55.17
68634;BME280;55625;47.072;22.192;2023-05-09T09:08:01;100405.34;;;15.79;54.88
68634;BME280;55625;47.072;22.192;2023-05-09T09:10:31;100404.88;;;15.81;54.48
68634;BME280;55625;47.072;22.192;2023-05-09T09:12:59;100413.63;;;15.87;55.35
68634;BME280;55625;47.072;22.192;2023-05-09T09:15:34;100402.81;;;15.81;54.76
68634;BME280;55625;47.072;22.192;2023-05-09T09:18:06;100406.47;;;15.91;56.14
68634;BME280;55625;47.072;22.192;2023-05-09T09:20:47;100403.81;;;15.97;55.27
68634;BME280;55625;47.072;22.192;2023-05-09T09:23:18;100399.84;;;16.03;55.48
68634;BME280;55625;47.072;22.192;2023-05-09T09:25:59;100402.84;;;16.09;55.22
68634;BME280;55625;47.072;22.192;2023-05-09T09:28:26;100402.22;;;16.14;52.31
68634;BME280;55625;47.072;22.192;2023-05-09T09:30:52;100393.31;;;16.39;54.20
68634;BME280;55625;47.072;22.192;2023-05-09T09:33:23;100393.47;;;16.45;50.71
68634;BME280;55625;47.072;22.192;2023-05-09T09:35:51;100392.69;;;16.54;55.33
68634;BME280;55625;47.072;22.192;2023-05-09T09:38:19;100399.41;;;16.69;56.44
68634;BME280;55625;47.072;22.192;2023-05-09T09:43:17;100397.16;;;17.99;53.85
68634;BME280;55625;47.072;22.192;2023-05-09T09:45:47;100392.09;;;17.94;53.83
68634;BME280;55625;47.072;22.192;2023-05-09T09:48:13;100395.81;;;17.86;54.09
68634;BME280;55625;47.072;22.192;2023-05-09T09:50:39;100386.00;;;17.78;55.69
68634;BME280;55625;47.072;22.192;2023-05-09T09:53:05;100400.66;;;17.80;54.16
68634;BME280;55625;47.072;22.192;2023-05-09T09:55:33;100396.88;;;18.36;52.55
68634;BME280;55625;47.072;22.192;2023-05-09T09:57:59;100387.59;;;18.80;50.17
68634;BME280;55625;47.072;22.192;2023-05-09T10:00:26;100396.03;;;18.69;51.77
68634;BME280;55625;47.072;22.192;2023-05-09T10:02:57;100400.25;;;18.35;53.75
68634;BME280;55625;47.072;22.192;2023-05-09T10:05:28;100389.53;;;18.20;54.02
68634;BME280;55625;47.072;22.192;2023-05-09T10:07:59;100392.47;;;18.11;55.41
68634;BME280;55625;47.072;22.192;2023-05-09T10:10:34;100385.47;;;18.03;55.64
68634;BME280;55625;47.072;22.192;2023-05-09T10:13:07;100385.81;;;17.81;55.18
68634;BME280;55625;47.072;22.192;2023-05-09T10:15:35;100389.78;;;17.84;55.04
68634;BME280;55625;47.072;22.192;2023-05-09T10:18:02;100381.72;;;17.64;55.23
68634;BME280;55625;47.072;22.192;2023-05-09T10:20:30;100387.63;;;17.60;55.65
68634;BME280;55625;47.072;22.192;2023-05-09T10:23:00;100379.63;;;17.64;56.23
68634;BME280;55625;47.072;22.192;2023-05-09T10:25:38;100373.25;;;17.69;56.13
68634;BME280;55625;47.072;22.192;2023-05-09T10:28:12;100385.13;;;18.10;54.08
68634;BME280;55625;47.072;22.192;2023-05-09T10:31:19;100377.28;;;18.73;53.18
68634;BME280;55625;47.072;22.192;2023-05-09T10:33:49;100376.34;;;19.41;52.89
68634;BME280;55625;47.072;22.192;2023-05-09T10:36:20;100366.41;;;19.57;54.04
68634;BME280;55625;47.072;22.192;2023-05-09T10:38:49;100364.09;;;20.16;52.51
68634;BME280;55625;47.072;22.192;2023-05-09T10:41:16;100365.63;;;20.52;52.33
68634;BME280;55625;47.072;22.192;2023-05-09T10:43:44;100362.91;;;20.95;49.96
68634;BME280;55625;47.072;22.192;2023-05-09T10:46:11;100360.28;;;20.97;49.89
68634;BME280;55625;47.072;22.192;2023-05-09T10:48:39;100356.56;;;20.91;49.84
68634;BME280;55625;47.072;22.192;2023-05-09T10:51:07;100363.78;;;20.81;44.42
68634;BME280;55625;47.072;22.192;2023-05-09T10:53:49;100353.94;;;20.41;44.62
68634;BME280;55625;47.072;22.192;2023-05-09T10:56:28;100347.53;;;20.11;45.60
68634;BME280;55625;47.072;22.192;2023-05-09T10:58:55;100358.06;;;19.94;47.87
68634;BME280;55625;47.072;22.192;2023-05-09T11:01:37;100357.72;;;19.71;50.12
68634;BME280;55625;47.072;22.192;2023-05-09T11:04:11;100363.34;;;19.60;50.60
68634;BME280;55625;47.072;22.192;2023-05-09T11:09:25;100370.59;;;19.26;50.23
68634;BME280;55625;47.072;22.192;2023-05-09T11:14:49;100351.78;;;18.96;50.34
68634;BME280;55625;47.072;22.192;2023-05-09T11:22:25;100355.59;;;18.48;53.18
68634;BME280;55625;47.072;22.192;2023-05-09T11:25:09;100359.53;;;18.36;53.72
68634;BME280;55625;47.072;22.192;2023-05-09T11:27:41;100351.38;;;18.20;51.62
68634;BME280;55625;47.072;22.192;2023-05-09T11:30:11;100356.63;;;18.21;49.97
68634;BME280;55625;47.072;22.192;2023-05-09T11:32:54;100347.50;;;18.23;51.98
68634;BME280;55625;47.072;22.192;2023-05-09T11:35:23;100350.66;;;17.86;50.28
68634;BME280;55625;47.072;22.192;2023-05-09T11:38:06;100350.22;;;18.03;51.78
68634;BME280;55625;47.072;22.192;2023-05-09T11:40:34;100351.69;;;18.22;53.32
68634;BME280;55625;47.072;22.192;2023-05-09T11:43:01;100343.16;;;18.27;53.16
68634;BME280;55625;47.072;22.192;2023-05-09T11:45:30;100342.78;;;18.35;52.35
68634;BME280;55625;47.072;22.192;2023-05-09T11:47:57;100331.50;;;18.46;53.37
68634;BME280;55625;47.072;22.192;2023-05-09T11:50:23;100331.91;;;18.39;52.04
68634;BME280;55625;47.072;22.192;2023-05-09T11:52:50;100328.88;;;18.18;53.87
68634;BME280;55625;47.072;22.192;2023-05-09T11:55:19;100336.81;;;18.23;53.56
68634;BME280;55625;47.072;22.192;2023-05-09T11:57:52;100335.38;;;18.04;53.22
68634;BME280;55625;47.072;22.192;2023-05-09T12:00:23;100327.44;;;17.99;54.30
68634;BME280;55625;47.072;22.192;2023-05-09T12:02:51;100328.19;;;17.85;54.65
68634;BME280;55625;47.072;22.192;2023-05-09T12:05:20;100323.72;;;17.84;55.43
68634;BME280;55625;47.072;22.192;2023-05-09T12:07:46;100326.16;;;18.00;54.65
68634;BME280;55625;47.072;22.192;2023-05-09T12:10:16;100326.69;;;18.13;54.53
68634;BME280;55625;47.072;22.192;2023-05-09T12:12:46;100310.66;;;18.36;55.01
68634;BME280;55625;47.072;22.192;2023-05-09T12:15:13;100320.00;;;18.60;59.33
68634;BME280;55625;47.072;22.192;2023-05-09T12:17:43;100321.72;;;18.97;55.37
68634;BME280;55625;47.072;22.192;2023-05-09T12:20:09;100312.78;;;19.09;55.38
68634;BME280;55625;47.072;22.192;2023-05-09T12:22:36;100312.34;;;19.31;54.70
68634;BME280;55625;47.072;22.192;2023-05-09T12:25:08;100320.59;;;19.23;54.99
68634;BME280;55625;47.072;22.192;2023-05-09T12:27:37;100306.97;;;19.39;54.77
68634;BME280;55625;47.072;22.192;2023-05-09T12:30:07;100305.53;;;19.49;52.07
68634;BME280;55625;47.072;22.192;2023-05-09T12:32:36;100309.63;;;19.42;53.62
68634;BME280;55625;47.072;22.192;2023-05-09T12:35:08;100299.28;;;19.65;53.21
68634;BME280;55625;47.072;22.192;2023-05-09T12:37:35;100292.13;;;19.81;52.55
68634;BME280;55625;47.072;22.192;2023-05-09T12:42:30;100291.34;;;19.60;52.76
68634;BME280;55625;47.072;22.192;2023-05-09T12:44:56;100288.03;;;19.32;52.17
68634;BME280;55625;47.072;22.192;2023-05-09T12:47:26;100291.72;;;19.18;49.88
68634;BME280;55625;47.072;22.192;2023-05-09T12:50:00;100286.28;;;19.20;49.64
68634;BME280;55625;47.072;22.192;2023-05-09T12:52:40;100275.72;;;19.32;50.78
68634;BME280;55625;47.072;22.192;2023-05-09T12:55:09;100273.28;;;19.60;50.28
68634;BME280;55625;47.072;22.192;2023-05-09T12:57:36;100276.16;;;19.80;48.80
68634;BME280;55625;47.072;22.192;2023-05-09T13:00:08;100267.94;;;19.93;49.15
68634;BME280;55625;47.072;22.192;2023-05-09T13:02:39;100270.66;;;19.82;47.39
68634;BME280;55625;47.072;22.192;2023-05-09T13:07:43;100262.47;;;19.75;46.84
68634;BME280;55625;47.072;22.192;2023-05-09T13:10:12;100261.59;;;19.89;48.49
68634;BME280;55625;47.072;22.192;2023-05-09T13:12:38;100250.78;;;20.04;48.79
68634;BME280;55625;47.072;22.192;2023-05-09T13:15:06;100260.03;;;20.14;50.23
68634;BME280;55625;47.072;22.192;2023-05-09T13:17:32;100252.38;;;20.31;48.25
68634;BME280;55625;47.072;22.192;2023-05-09T13:19:58;100242.09;;;20.51;48.92